createdAt,value
2022-11-06T00:00:09.190Z,14.29
2022-11-06T00:01:40.989Z,14.32
2022-11-06T00:03:12.587Z,14.32
2022-11-06T00:04:44.322Z,14.30
2022-11-06T00:06:36.310Z,14.31
2022-11-06T00:08:07.841Z,14.31
2022-11-06T00:09:39.434Z,14.31
2022-11-06T00:11:11.847Z,14.26
2022-11-06T00:12:43.492Z,14.20
2022-11-06T00:14:15.189Z,14.14
2022-11-06T00:15:46.960Z,14.06
2022-11-06T00:17:18.488Z,13.96
2022-11-06T00:18:50.044Z,13.90
2022-11-06T00:20:21.694Z,13.84
2022-11-06T00:21:53.589Z,13.80
2022-11-06T00:23:25.207Z,13.81
2022-11-06T00:24:56.872Z,13.82
2022-11-06T00:26:28.929Z,13.83
2022-11-06T00:28:00.534Z,13.85
2022-11-06T00:29:32.327Z,13.84
2022-11-06T00:31:08.730Z,13.81
2022-11-06T00:32:40.729Z,13.79
2022-11-06T00:34:12.394Z,13.75
2022-11-06T00:35:44.256Z,13.74
2022-11-06T00:37:15.936Z,13.73
2022-11-06T00:38:47.527Z,13.69
2022-11-06T00:40:19.489Z,13.65
2022-11-06T00:41:51.055Z,13.62
2022-11-06T00:43:23.304Z,13.63
2022-11-06T00:44:54.871Z,13.56
2022-11-06T00:46:26.643Z,13.48
2022-11-06T00:47:58.275Z,13.43
2022-11-06T00:49:30.669Z,13.45
2022-11-06T00:51:05.501Z,13.45
2022-11-06T00:52:37.165Z,13.48
2022-11-06T00:54:10.283Z,13.45
2022-11-06T00:55:41.903Z,13.47
2022-11-06T00:57:13.664Z,13.45
2022-11-06T00:58:45.424Z,13.39
2022-11-06T01:00:18.411Z,13.40
2022-11-06T01:01:50.061Z,13.52
2022-11-06T01:03:21.772Z,13.63
2022-11-06T01:04:53.454Z,13.71
2022-11-06T01:06:25.909Z,13.76
2022-11-06T01:07:57.528Z,13.78
2022-11-06T01:09:29.303Z,13.78
2022-11-06T01:11:06.083Z,13.78
2022-11-06T01:12:37.650Z,13.74
2022-11-06T01:14:09.453Z,13.73
2022-11-06T01:15:41.046Z,13.70
2022-11-06T01:17:13.516Z,13.67
2022-11-06T01:18:45.445Z,13.64
2022-11-06T01:20:17.107Z,13.65
2022-11-06T01:21:49.429Z,13.63
2022-11-06T01:23:21.037Z,13.63
2022-11-06T01:24:52.838Z,13.64
2022-11-06T01:26:37.378Z,13.59
2022-11-06T01:28:10.290Z,13.57
2022-11-06T01:29:42.141Z,13.61
2022-11-06T01:31:14.495Z,13.64
2022-11-06T01:32:46.204Z,13.65
2022-11-06T01:34:18.026Z,13.67
2022-11-06T01:35:51.438Z,13.66
2022-11-06T01:37:23.073Z,13.64
2022-11-06T01:38:55.640Z,13.66
2022-11-06T01:40:27.537Z,13.70
2022-11-06T01:41:59.198Z,13.73
2022-11-06T01:43:49.012Z,13.71
2022-11-06T01:45:23.758Z,13.64
2022-11-06T01:46:55.316Z,13.59
2022-11-06T01:48:26.835Z,13.50
2022-11-06T01:50:01.226Z,13.47
2022-11-06T01:51:34.515Z,13.43
2022-11-06T01:53:06.153Z,13.46
2022-11-06T01:54:38.762Z,13.39
2022-11-06T01:56:11.089Z,13.37
2022-11-06T01:57:42.914Z,13.34
2022-11-06T01:59:15.780Z,13.36
2022-11-06T02:00:47.510Z,13.33
2022-11-06T02:02:19.320Z,13.37
2022-11-06T02:03:57.108Z,13.34
2022-11-06T02:05:28.624Z,13.32
2022-11-06T02:07:00.246Z,13.30
2022-11-06T02:08:31.824Z,13.35
2022-11-06T02:10:03.489Z,13.36
2022-11-06T02:11:35.122Z,13.40
2022-11-06T02:13:09.646Z,13.49
2022-11-06T02:15:01.863Z,13.54
2022-11-06T02:16:47.031Z,13.44
2022-11-06T02:18:25.277Z,13.39
2022-11-06T02:20:06.421Z,13.40
2022-11-06T02:21:56.727Z,13.38
2022-11-06T02:23:42.244Z,13.31
2022-11-06T02:25:13.986Z,13.31
2022-11-06T02:26:51.513Z,13.27
2022-11-06T02:28:23.027Z,13.30
2022-11-06T02:30:02.825Z,13.30
2022-11-06T02:31:34.620Z,13.30
2022-11-06T02:33:07.561Z,13.29
2022-11-06T02:34:39.203Z,13.29
2022-11-06T02:36:12.437Z,13.33
2022-11-06T02:37:44.426Z,13.38
2022-11-06T02:39:16.527Z,13.38
2022-11-06T02:40:54.747Z,13.43
2022-11-06T02:42:26.589Z,13.46
2022-11-06T02:43:58.199Z,13.45
2022-11-06T02:45:29.853Z,13.41
2022-11-06T02:47:02.256Z,13.41
2022-11-06T02:48:37.268Z,13.38
2022-11-06T02:50:18.568Z,13.33
2022-11-06T02:51:50.877Z,13.34
2022-11-06T02:53:23.570Z,13.30
2022-11-06T02:55:05.884Z,13.27
2022-11-06T02:56:39.464Z,13.26
2022-11-06T02:58:19.135Z,13.22
2022-11-06T02:59:52.477Z,13.25
2022-11-06T03:01:28.450Z,13.28
2022-11-06T03:03:26.643Z,13.31
2022-11-06T03:05:04.771Z,13.37
2022-11-06T03:06:38.470Z,13.37
2022-11-06T03:08:12.775Z,13.42
2022-11-06T03:09:44.531Z,13.47
2022-11-06T03:11:17.567Z,13.45
2022-11-06T03:12:50.908Z,13.45
2022-11-06T03:14:45.700Z,13.48
2022-11-06T03:16:17.340Z,13.53
2022-11-06T03:17:49.016Z,13.52
2022-11-06T03:19:38.203Z,13.50
2022-11-06T03:21:15.960Z,13.42
2022-11-06T03:22:47.992Z,13.37
2022-11-06T03:24:23.219Z,13.31
2022-11-06T03:25:58.238Z,13.26
2022-11-06T03:27:36.195Z,13.23
2022-11-06T03:29:16.508Z,13.22
2022-11-06T03:30:52.528Z,13.24
2022-11-06T03:32:28.351Z,13.22
2022-11-06T03:34:01.695Z,13.19
2022-11-06T03:35:36.000Z,13.19
2022-11-06T03:37:09.947Z,13.19
2022-11-06T03:38:42.623Z,13.18
2022-11-06T03:40:16.222Z,13.24
2022-11-06T03:41:48.383Z,13.27
2022-11-06T03:43:20.953Z,13.29
2022-11-06T03:44:53.646Z,13.37
2022-11-06T03:46:25.368Z,13.38
2022-11-06T03:47:59.608Z,13.41
2022-11-06T03:49:36.289Z,13.41
2022-11-06T03:51:13.383Z,13.43
2022-11-06T03:52:47.216Z,13.40
2022-11-06T03:54:20.552Z,13.38
2022-11-06T03:55:52.797Z,13.36
2022-11-06T03:57:29.117Z,13.36
2022-11-06T03:59:02.117Z,13.33
2022-11-06T04:00:35.006Z,13.35
2022-11-06T04:02:06.556Z,13.36
2022-11-06T04:03:39.899Z,13.38
2022-11-06T04:05:21.924Z,13.39
2022-11-06T04:06:53.601Z,13.43
2022-11-06T04:08:44.209Z,13.45
2022-11-06T04:10:34.266Z,13.47
2022-11-06T04:12:24.706Z,13.41
2022-11-06T04:14:00.992Z,13.38
2022-11-06T04:15:33.568Z,13.33
2022-11-06T04:17:06.512Z,13.30
2022-11-06T04:18:38.521Z,13.30
2022-11-06T04:20:10.910Z,13.29
2022-11-06T04:21:52.541Z,13.30
2022-11-06T04:23:32.747Z,13.31
2022-11-06T04:25:22.996Z,13.33
2022-11-06T04:26:57.533Z,13.36
2022-11-06T04:28:37.016Z,13.38
2022-11-06T04:30:09.551Z,13.36
2022-11-06T04:31:43.396Z,13.36
2022-11-06T04:33:18.403Z,13.37
2022-11-06T04:34:56.319Z,13.40
2022-11-06T04:36:50.859Z,13.44
2022-11-06T04:38:27.978Z,13.52
2022-11-06T04:40:05.358Z,13.53
2022-11-06T04:41:55.872Z,13.56
2022-11-06T04:43:32.972Z,13.62
2022-11-06T04:45:15.257Z,13.67
2022-11-06T04:46:47.914Z,13.70
2022-11-06T04:48:19.452Z,13.70
2022-11-06T04:49:51.157Z,13.71
2022-11-06T04:51:23.867Z,13.73
2022-11-06T04:52:55.473Z,13.73
2022-11-06T04:54:27.149Z,13.79
2022-11-06T04:56:02.636Z,13.79
2022-11-06T04:57:34.253Z,13.80
2022-11-06T04:59:06.144Z,13.80
2022-11-06T05:00:38.619Z,13.74
2022-11-06T05:02:10.342Z,13.67
2022-11-06T05:03:41.919Z,13.68
2022-11-06T05:05:13.469Z,13.69
2022-11-06T05:06:45.222Z,13.68
2022-11-06T05:08:18.928Z,13.64
2022-11-06T05:09:50.624Z,13.51
2022-11-06T05:11:22.252Z,13.42
2022-11-06T05:12:53.784Z,13.44
2022-11-06T05:14:25.299Z,13.43
2022-11-06T05:15:57.637Z,13.42
2022-11-06T05:17:33.920Z,13.38
2022-11-06T05:19:07.993Z,13.32
2022-11-06T05:20:39.608Z,13.29
2022-11-06T05:22:29.470Z,13.22
2022-11-06T05:24:01.092Z,13.21
2022-11-06T05:25:32.990Z,13.22
2022-11-06T05:27:04.759Z,13.21
2022-11-06T05:28:36.437Z,13.21
2022-11-06T05:30:11.154Z,13.24
2022-11-06T05:31:43.174Z,13.26
2022-11-06T05:33:14.752Z,13.28
2022-11-06T05:34:46.973Z,13.31
2022-11-06T05:36:18.855Z,13.29
2022-11-06T05:37:50.524Z,13.29
2022-11-06T05:39:22.267Z,13.30
2022-11-06T05:40:53.908Z,13.29
2022-11-06T05:42:25.636Z,13.27
2022-11-06T05:43:57.714Z,13.26
2022-11-06T05:45:29.317Z,13.26
2022-11-06T05:47:00.972Z,13.30
2022-11-06T05:48:32.649Z,13.32
2022-11-06T05:50:04.384Z,13.33
2022-11-06T05:51:36.046Z,13.34
2022-11-06T05:53:10.415Z,13.27
2022-11-06T05:54:42.105Z,13.23
2022-11-06T05:56:13.724Z,13.22
2022-11-06T05:57:45.378Z,13.30
2022-11-06T05:59:16.935Z,13.36
2022-11-06T06:00:49.066Z,13.38
2022-11-06T06:02:21.075Z,13.40
2022-11-06T06:03:53.142Z,13.40
2022-11-06T06:05:24.833Z,13.40
2022-11-06T06:06:56.609Z,13.45
2022-11-06T06:08:28.416Z,13.45
2022-11-06T06:10:00.042Z,13.51
2022-11-06T06:11:31.562Z,13.55
2022-11-06T06:13:05.707Z,13.61
2022-11-06T06:14:37.450Z,13.66
2022-11-06T06:16:09.248Z,13.71
2022-11-06T06:17:41.021Z,13.71
2022-11-06T06:19:13.099Z,13.73
2022-11-06T06:20:44.807Z,13.74
2022-11-06T06:22:16.473Z,13.78
2022-11-06T06:23:48.412Z,13.80
2022-11-06T06:25:22.975Z,13.80
2022-11-06T06:26:54.805Z,13.79
2022-11-06T06:28:26.531Z,13.75
2022-11-06T06:29:58.318Z,13.72
2022-11-06T06:31:30.114Z,13.69
2022-11-06T06:33:05.545Z,13.64
2022-11-06T06:34:37.309Z,13.58
2022-11-06T06:36:09.187Z,13.62
2022-11-06T06:37:40.769Z,13.67
2022-11-06T06:39:12.408Z,13.78
2022-11-06T06:40:43.900Z,13.87
2022-11-06T06:42:15.656Z,13.88
2022-11-06T06:43:50.542Z,13.88
2022-11-06T06:45:22.198Z,13.86
2022-11-06T06:46:53.911Z,13.87
2022-11-06T06:48:25.795Z,13.90
2022-11-06T06:49:58.153Z,13.88
2022-11-06T06:51:29.752Z,13.90
2022-11-06T06:53:01.525Z,13.88
2022-11-06T06:54:33.200Z,13.90
2022-11-06T06:56:04.909Z,13.92
2022-11-06T06:57:36.549Z,13.93
2022-11-06T06:59:08.151Z,13.96
2022-11-06T07:00:39.916Z,14.02
2022-11-06T07:02:11.696Z,14.01
2022-11-06T07:03:43.886Z,13.95
2022-11-06T07:05:15.589Z,13.96
2022-11-06T07:06:47.258Z,13.98
2022-11-06T07:08:19.084Z,13.96
2022-11-06T07:09:53.463Z,13.95
2022-11-06T07:11:25.221Z,13.96
2022-11-06T07:12:56.849Z,13.98
2022-11-06T07:14:29.582Z,13.87
2022-11-06T07:16:07.840Z,13.86
2022-11-06T07:17:39.443Z,13.83
2022-11-06T07:19:10.970Z,13.86
2022-11-06T07:20:42.588Z,13.88
2022-11-06T07:22:14.712Z,13.86
2022-11-06T07:23:46.637Z,13.82
2022-11-06T07:25:18.657Z,13.87
2022-11-06T07:26:50.521Z,13.92
2022-11-06T07:28:22.331Z,13.94
2022-11-06T07:29:54.077Z,13.95
2022-11-06T07:31:25.909Z,13.95
2022-11-06T07:32:59.921Z,13.98
2022-11-06T07:34:31.632Z,14.02
2022-11-06T07:36:12.547Z,14.01
2022-11-06T07:37:44.724Z,14.06
2022-11-06T07:39:16.502Z,14.12
2022-11-06T07:40:48.701Z,14.13
2022-11-06T07:42:20.616Z,14.16
2022-11-06T07:43:54.535Z,14.22
2022-11-06T07:45:26.451Z,14.28
2022-11-06T07:47:00.537Z,14.35
2022-11-06T07:48:32.923Z,14.44
2022-11-06T07:50:04.670Z,14.53
2022-11-06T07:51:37.440Z,14.56
2022-11-06T07:53:09.443Z,14.57
2022-11-06T07:54:41.425Z,14.61
2022-11-06T07:56:13.263Z,14.67
2022-11-06T07:57:44.854Z,14.74
2022-11-06T07:59:16.718Z,14.78
2022-11-06T08:00:51.959Z,14.77
2022-11-06T08:02:23.821Z,14.77
2022-11-06T08:03:56.436Z,14.78
2022-11-06T08:05:28.221Z,14.77
2022-11-06T08:06:59.912Z,14.78
2022-11-06T08:08:32.098Z,14.70
2022-11-06T08:10:04.017Z,14.68
2022-11-06T08:11:36.019Z,14.60
2022-11-06T08:13:07.691Z,14.54
2022-11-06T08:14:41.550Z,14.58
2022-11-06T08:16:14.219Z,14.61
2022-11-06T08:17:46.145Z,14.64
2022-11-06T08:19:18.374Z,14.67
2022-11-06T08:20:52.386Z,14.71
2022-11-06T08:22:24.023Z,14.71
2022-11-06T08:23:55.653Z,14.71
2022-11-06T08:25:27.476Z,14.69
2022-11-06T08:27:00.037Z,14.76
2022-11-06T08:28:31.762Z,14.83
2022-11-06T08:30:04.481Z,14.78
2022-11-06T08:31:36.437Z,14.75
2022-11-06T08:33:08.445Z,14.77
2022-11-06T08:34:40.353Z,14.81
2022-11-06T08:36:12.431Z,14.78
2022-11-06T08:37:44.349Z,14.77
2022-11-06T08:39:16.274Z,14.77
2022-11-06T08:40:53.196Z,14.78
2022-11-06T08:42:25.903Z,14.72
2022-11-06T08:43:57.759Z,14.71
2022-11-06T08:45:29.943Z,14.68
2022-11-06T08:47:02.383Z,14.70
2022-11-06T08:48:35.322Z,14.78
2022-11-06T08:50:07.932Z,14.87
2022-11-06T08:51:39.960Z,14.93
2022-11-06T08:53:11.957Z,14.97
2022-11-06T08:54:43.943Z,14.97
2022-11-06T08:56:15.811Z,14.96
2022-11-06T08:57:47.532Z,14.97
2022-11-06T08:59:19.069Z,14.99
2022-11-06T09:00:50.908Z,15.04
2022-11-06T09:02:23.179Z,15.03
2022-11-06T09:03:54.745Z,15.04
2022-11-06T09:05:26.827Z,15.02
2022-11-06T09:06:58.918Z,15.00
2022-11-06T09:08:30.628Z,15.00
2022-11-06T09:10:02.492Z,15.05
2022-11-06T09:11:34.190Z,15.11
2022-11-06T09:13:05.911Z,15.12
2022-11-06T09:14:37.528Z,15.12
2022-11-06T09:16:15.388Z,15.10
2022-11-06T09:17:48.219Z,15.12
2022-11-06T09:19:20.118Z,15.09
2022-11-06T09:20:56.130Z,15.11
2022-11-06T09:22:27.838Z,15.19
2022-11-06T09:24:04.929Z,15.25
2022-11-06T09:25:36.679Z,15.35
2022-11-06T09:27:08.358Z,15.39
2022-11-06T09:28:40.081Z,15.42
2022-11-06T09:30:12.929Z,15.45
2022-11-06T09:31:45.345Z,15.48
2022-11-06T09:33:17.233Z,15.45
2022-11-06T09:34:49.154Z,15.38
2022-11-06T09:36:21.077Z,15.32
2022-11-06T09:37:52.830Z,15.37
2022-11-06T09:39:24.666Z,15.43
2022-11-06T09:40:58.213Z,15.44
2022-11-06T09:42:46.780Z,15.41
2022-11-06T09:44:18.689Z,15.44
2022-11-06T09:45:54.732Z,15.51
2022-11-06T09:47:27.894Z,15.60
2022-11-06T09:49:05.715Z,15.66
2022-11-06T09:50:39.464Z,15.65
2022-11-06T09:52:12.571Z,15.62
2022-11-06T09:54:02.455Z,15.56
2022-11-06T09:55:34.756Z,15.47
2022-11-06T09:57:36.014Z,15.49
2022-11-06T09:59:10.665Z,15.59
2022-11-06T10:00:42.440Z,15.70
2022-11-06T10:02:26.405Z,15.77
2022-11-06T10:03:59.672Z,15.79
2022-11-06T10:05:35.285Z,15.81
2022-11-06T10:07:33.086Z,15.83
2022-11-06T10:09:06.520Z,15.91
2022-11-06T10:10:38.488Z,15.96
2022-11-06T10:12:33.569Z,15.94
2022-11-06T10:14:05.529Z,15.89
2022-11-06T10:15:39.490Z,15.91
2022-11-06T10:17:14.553Z,15.92
2022-11-06T10:18:52.697Z,15.89
2022-11-06T10:20:43.155Z,15.84
2022-11-06T10:22:16.684Z,15.89
2022-11-06T10:24:01.541Z,15.87
2022-11-06T10:25:45.504Z,15.87
2022-11-06T10:27:17.928Z,15.81
2022-11-06T10:29:09.726Z,15.75
2022-11-06T10:30:45.392Z,15.70
2022-11-06T10:32:16.923Z,15.62
2022-11-06T10:34:00.937Z,15.60
2022-11-06T10:35:35.907Z,15.61
2022-11-06T10:37:17.759Z,15.61
2022-11-06T10:38:50.223Z,15.63
2022-11-06T10:40:23.553Z,15.65
2022-11-06T10:42:16.611Z,15.72
2022-11-06T10:43:48.458Z,15.76
2022-11-06T10:45:20.120Z,15.83
2022-11-06T10:46:56.137Z,15.92
2022-11-06T10:48:34.431Z,15.94
2022-11-06T10:50:14.268Z,15.93
2022-11-06T10:52:08.278Z,15.92
2022-11-06T10:53:55.664Z,15.90
2022-11-06T10:55:37.107Z,15.89
2022-11-06T10:57:17.974Z,15.97
2022-11-06T10:58:49.577Z,15.91
2022-11-06T11:00:41.226Z,15.90
2022-11-06T11:02:20.806Z,15.89
2022-11-06T11:03:52.484Z,15.86
2022-11-06T11:05:24.850Z,15.87
2022-11-06T11:06:56.649Z,15.92
2022-11-06T11:08:31.217Z,15.96
2022-11-06T11:10:41.342Z,15.99
2022-11-06T11:12:20.302Z,16.06
2022-11-06T11:13:57.693Z,16.04
2022-11-06T11:15:31.542Z,16.05
2022-11-06T11:17:03.356Z,16.07
2022-11-06T11:18:35.394Z,16.09
2022-11-06T11:20:36.222Z,16.12
2022-11-06T11:22:17.634Z,16.09
2022-11-06T11:24:01.408Z,16.11
2022-11-06T11:25:32.916Z,16.09
2022-11-06T11:27:07.509Z,16.11
2022-11-06T11:28:39.511Z,16.15
2022-11-06T11:30:19.805Z,16.17
2022-11-06T11:31:52.229Z,16.15
2022-11-06T11:33:24.571Z,16.17
2022-11-06T11:34:57.047Z,16.19
2022-11-06T11:36:47.108Z,16.23
2022-11-06T11:38:19.282Z,16.22
2022-11-06T11:39:50.971Z,16.18
2022-11-06T11:41:23.108Z,16.17
2022-11-06T11:42:54.906Z,16.16
2022-11-06T11:44:26.510Z,16.17
2022-11-06T11:46:10.391Z,16.17
2022-11-06T11:47:46.932Z,16.19
2022-11-06T11:49:36.427Z,16.22
2022-11-06T11:51:26.423Z,16.34
2022-11-06T11:53:10.921Z,16.44
2022-11-06T11:54:42.575Z,16.51
2022-11-06T11:56:14.991Z,16.50
2022-11-06T11:57:48.771Z,16.46
2022-11-06T11:59:29.912Z,16.42
2022-11-06T12:01:04.855Z,16.37
2022-11-06T12:02:37.301Z,16.30
2022-11-06T12:04:10.113Z,16.27
2022-11-06T12:05:56.998Z,16.27
2022-11-06T12:07:28.950Z,16.23
2022-11-06T12:09:00.499Z,16.21
2022-11-06T12:10:41.495Z,16.21
2022-11-06T12:12:23.201Z,16.19
2022-11-06T12:14:30.227Z,16.23
2022-11-06T12:16:02.458Z,16.30
2022-11-06T12:17:34.517Z,16.38
2022-11-06T12:19:07.347Z,16.42
2022-11-06T12:20:43.692Z,16.47
2022-11-06T12:22:28.884Z,16.44
2022-11-06T12:24:00.517Z,16.50
2022-11-06T12:25:36.463Z,16.53
2022-11-06T12:27:11.189Z,16.55
2022-11-06T12:28:42.891Z,16.62
2022-11-06T12:30:15.462Z,16.65
2022-11-06T12:31:47.389Z,16.68
2022-11-06T12:33:27.342Z,16.70
2022-11-06T12:35:30.726Z,16.73
2022-11-06T12:37:14.888Z,16.74
2022-11-06T12:38:51.159Z,16.74
2022-11-06T12:40:25.923Z,16.75
2022-11-06T12:41:57.739Z,16.69
2022-11-06T12:43:33.136Z,16.68
2022-11-06T12:45:06.554Z,16.70
2022-11-06T12:46:43.679Z,16.76
2022-11-06T12:48:22.092Z,16.79
2022-11-06T12:50:02.589Z,16.84
2022-11-06T12:51:49.945Z,16.85
2022-11-06T12:53:25.278Z,16.85
2022-11-06T12:55:05.111Z,16.85
2022-11-06T12:56:55.421Z,16.88
2022-11-06T12:58:27.111Z,16.88
2022-11-06T13:00:31.470Z,16.88
2022-11-06T13:02:12.337Z,16.89
2022-11-06T13:03:46.777Z,16.89
2022-11-06T13:05:18.588Z,16.84
2022-11-06T13:07:05.496Z,16.78
2022-11-06T13:08:52.359Z,16.65
2022-11-06T13:10:44.422Z,16.54
2022-11-06T13:12:18.384Z,16.48
2022-11-06T13:13:49.992Z,16.42
2022-11-06T13:15:27.444Z,16.43
2022-11-06T13:17:06.553Z,16.43
2022-11-06T13:18:40.757Z,16.37
2022-11-06T13:20:18.227Z,16.33
2022-11-06T13:21:52.742Z,16.27
2022-11-06T13:23:38.369Z,16.20
2022-11-06T13:25:15.557Z,16.07
2022-11-06T13:26:54.576Z,16.04
2022-11-06T13:28:46.505Z,16.01
2022-11-06T13:30:18.944Z,15.97
2022-11-06T13:31:55.277Z,15.97
2022-11-06T13:33:30.934Z,15.96
2022-11-06T13:35:02.489Z,15.94
2022-11-06T13:36:35.835Z,15.97
2022-11-06T13:38:08.274Z,16.00
2022-11-06T13:39:50.337Z,15.99
2022-11-06T13:41:22.672Z,16.04
2022-11-06T13:43:03.767Z,16.10
2022-11-06T13:44:35.684Z,16.16
2022-11-06T13:46:13.200Z,16.11
2022-11-06T13:47:44.784Z,16.08
2022-11-06T13:49:16.550Z,16.11
2022-11-06T13:50:51.139Z,16.10
2022-11-06T13:52:31.503Z,16.08
2022-11-06T13:54:12.307Z,16.06
2022-11-06T13:55:44.190Z,16.03
2022-11-06T13:57:22.077Z,15.97
2022-11-06T13:59:02.799Z,15.94
2022-11-06T14:00:37.602Z,15.89
2022-11-06T14:02:12.057Z,15.88
2022-11-06T14:03:43.920Z,15.86
2022-11-06T14:05:21.746Z,15.85
2022-11-06T14:06:54.072Z,15.85
2022-11-06T14:08:34.944Z,15.84
2022-11-06T14:10:12.051Z,15.84
2022-11-06T14:11:43.811Z,15.85
2022-11-06T14:13:15.366Z,15.81
2022-11-06T14:14:47.216Z,15.84
2022-11-06T14:16:21.909Z,15.84
2022-11-06T14:17:54.337Z,15.80
2022-11-06T14:19:30.585Z,15.75
2022-11-06T14:21:21.012Z,15.79
2022-11-06T14:22:52.974Z,15.84
2022-11-06T14:24:34.518Z,15.90
2022-11-06T14:26:09.434Z,15.97
2022-11-06T14:27:41.148Z,16.03
2022-11-06T14:29:30.739Z,16.05
2022-11-06T14:31:15.632Z,16.09
2022-11-06T14:32:49.181Z,16.18
2022-11-06T14:34:26.998Z,16.27
2022-11-06T14:35:58.995Z,16.31
2022-11-06T14:37:52.483Z,16.34
2022-11-06T14:39:42.868Z,16.35
2022-11-06T14:41:33.190Z,16.34
2022-11-06T14:43:41.516Z,16.33
2022-11-06T14:45:22.024Z,16.31
2022-11-06T14:46:55.700Z,16.33
2022-11-06T14:48:40.705Z,16.33
2022-11-06T14:50:18.555Z,16.36
2022-11-06T14:52:03.032Z,16.36
2022-11-06T14:53:35.610Z,16.29
2022-11-06T14:55:08.098Z,16.20
2022-11-06T14:56:39.944Z,16.14
2022-11-06T14:58:15.209Z,16.13
2022-11-06T14:59:49.458Z,16.15
2022-11-06T15:01:25.237Z,16.08
2022-11-06T15:02:57.274Z,16.05
2022-11-06T15:04:29.325Z,16.01
2022-11-06T15:06:02.545Z,15.97
2022-11-06T15:08:03.715Z,15.90
2022-11-06T15:09:37.971Z,15.85
2022-11-06T15:11:09.652Z,15.83
2022-11-06T15:13:03.672Z,15.82
2022-11-06T15:14:35.343Z,15.86
2022-11-06T15:16:10.038Z,15.84
2022-11-06T15:17:41.999Z,15.85
2022-11-06T15:19:16.064Z,15.84
2022-11-06T15:20:54.963Z,15.80
2022-11-06T15:22:34.267Z,15.77
2022-11-06T15:24:09.323Z,15.76
2022-11-06T15:25:46.431Z,15.77
2022-11-06T15:27:25.894Z,15.79
2022-11-06T15:29:03.322Z,15.73
2022-11-06T15:30:48.734Z,15.70
2022-11-06T15:32:21.584Z,15.66
2022-11-06T15:34:03.370Z,15.63
2022-11-06T15:35:35.146Z,15.58
2022-11-06T15:37:13.623Z,15.55
2022-11-06T15:38:46.037Z,15.49
2022-11-06T15:40:30.633Z,15.43
2022-11-06T15:42:02.756Z,15.36
2022-11-06T15:43:35.755Z,15.28
2022-11-06T15:45:08.514Z,15.23
2022-11-06T15:46:40.288Z,15.18
2022-11-06T15:48:20.479Z,15.11
2022-11-06T15:50:06.965Z,15.06
2022-11-06T15:51:40.017Z,15.04
2022-11-06T15:53:15.171Z,15.04
2022-11-06T15:54:48.647Z,15.05
2022-11-06T15:56:25.053Z,15.07
2022-11-06T15:58:05.453Z,15.08
2022-11-06T15:59:37.529Z,15.07
2022-11-06T16:01:10.625Z,15.03
2022-11-06T16:02:51.648Z,14.96
2022-11-06T16:04:24.538Z,14.87
2022-11-06T16:05:58.073Z,14.80
2022-11-06T16:07:30.750Z,14.79
2022-11-06T16:09:02.433Z,14.77
2022-11-06T16:10:35.150Z,14.73
2022-11-06T16:12:06.907Z,14.72
2022-11-06T16:13:38.697Z,14.77
2022-11-06T16:15:28.777Z,14.78
2022-11-06T16:17:00.361Z,14.82
2022-11-06T16:18:44.575Z,14.83
2022-11-06T16:20:16.287Z,14.79
2022-11-06T16:21:49.270Z,14.81
2022-11-06T16:23:29.344Z,14.79
2022-11-06T16:25:05.718Z,14.77
2022-11-06T16:26:40.982Z,14.72
2022-11-06T16:28:19.195Z,14.73
2022-11-06T16:29:54.976Z,14.74
2022-11-06T16:31:29.892Z,14.72
2022-11-06T16:33:04.534Z,14.73
2022-11-06T16:34:42.184Z,14.75
2022-11-06T16:36:14.432Z,14.72
2022-11-06T16:37:46.126Z,14.69
2022-11-06T16:39:17.720Z,14.64
2022-11-06T16:40:50.575Z,14.57
2022-11-06T16:42:22.529Z,14.51
2022-11-06T16:44:15.745Z,14.46
2022-11-06T16:46:08.077Z,14.45
2022-11-06T16:47:39.853Z,14.41
2022-11-06T16:49:30.066Z,14.41
2022-11-06T16:51:02.810Z,14.40
2022-11-06T16:52:34.456Z,14.41
2022-11-06T16:54:15.171Z,14.39
2022-11-06T16:55:56.534Z,14.38
2022-11-06T16:57:37.725Z,14.34
2022-11-06T16:59:09.626Z,14.32
2022-11-06T17:00:41.139Z,14.28
2022-11-06T17:02:20.381Z,14.29
2022-11-06T17:04:01.378Z,14.32
2022-11-06T17:05:41.957Z,14.32
2022-11-06T17:07:20.432Z,14.32
2022-11-06T17:08:58.862Z,14.31
2022-11-06T17:10:36.781Z,14.31
2022-11-06T17:12:09.947Z,14.32
2022-11-06T17:13:41.858Z,14.35
2022-11-06T17:15:13.489Z,14.36
2022-11-06T17:16:54.997Z,14.38
2022-11-06T17:18:27.987Z,14.38
2022-11-06T17:20:00.921Z,14.35
2022-11-06T17:21:32.590Z,14.30
2022-11-06T17:23:04.673Z,14.30
2022-11-06T17:24:37.554Z,14.32
2022-11-06T17:26:14.972Z,14.31
2022-11-06T17:27:46.659Z,14.31
2022-11-06T17:29:21.970Z,14.29
2022-11-06T17:30:55.138Z,14.29
2022-11-06T17:32:26.756Z,14.26
2022-11-06T17:33:58.811Z,14.23
2022-11-06T17:35:30.569Z,14.16
2022-11-06T17:37:02.140Z,14.15
2022-11-06T17:38:34.049Z,14.16
2022-11-06T17:40:05.761Z,14.09
2022-11-06T17:41:37.553Z,14.02
2022-11-06T17:43:09.190Z,13.96
2022-11-06T17:44:40.936Z,13.95
2022-11-06T17:46:13.524Z,13.97
2022-11-06T17:47:45.107Z,14.00
2022-11-06T17:49:18.429Z,13.97
2022-11-06T17:51:09.322Z,13.95
2022-11-06T17:52:40.911Z,13.93
2022-11-06T17:54:12.819Z,13.93
2022-11-06T17:55:44.401Z,13.94
2022-11-06T17:57:22.840Z,13.95
2022-11-06T17:58:55.664Z,13.98
2022-11-06T18:00:27.467Z,14.01
2022-11-06T18:01:59.231Z,13.98
2022-11-06T18:03:36.357Z,13.95
2022-11-06T18:05:08.861Z,13.95
2022-11-06T18:06:40.446Z,14.00
2022-11-06T18:08:12.576Z,14.05
2022-11-06T18:09:44.505Z,14.03
2022-11-06T18:11:16.302Z,14.02
2022-11-06T18:12:51.418Z,14.01
2022-11-06T18:14:23.231Z,13.99
2022-11-06T18:15:54.988Z,13.95
2022-11-06T18:17:26.505Z,13.91
2022-11-06T18:18:58.182Z,13.86
2022-11-06T18:20:30.190Z,13.85
2022-11-06T18:22:06.526Z,13.85
2022-11-06T18:23:38.298Z,13.88
2022-11-06T18:25:10.125Z,13.87
2022-11-06T18:26:41.888Z,13.85
2022-11-06T18:28:13.551Z,13.85
2022-11-06T18:29:45.577Z,13.84
2022-11-06T18:31:17.596Z,13.85
2022-11-06T18:32:49.539Z,13.82
2022-11-06T18:34:21.443Z,13.77
2022-11-06T18:35:53.054Z,13.77
2022-11-06T18:37:26.115Z,13.79
2022-11-06T18:38:57.721Z,13.82
2022-11-06T18:40:29.442Z,13.81
2022-11-06T18:42:01.080Z,13.80
2022-11-06T18:43:32.599Z,13.73
2022-11-06T18:45:04.868Z,13.64
2022-11-06T18:46:37.143Z,13.58
2022-11-06T18:48:08.752Z,13.57
2022-11-06T18:49:40.415Z,13.59
2022-11-06T18:51:12.388Z,13.61
2022-11-06T18:52:57.642Z,13.63
2022-11-06T18:54:29.972Z,13.64
2022-11-06T18:56:02.014Z,13.60
2022-11-06T18:57:33.602Z,13.60
2022-11-06T18:59:06.367Z,13.64
2022-11-06T19:00:38.112Z,13.66
2022-11-06T19:02:10.261Z,13.63
2022-11-06T19:03:42.062Z,13.60
2022-11-06T19:05:13.812Z,13.61
2022-11-06T19:06:45.542Z,13.62
2022-11-06T19:08:20.088Z,13.61
2022-11-06T19:09:51.856Z,13.57
2022-11-06T19:11:23.648Z,13.55
2022-11-06T19:12:59.255Z,13.51
2022-11-06T19:14:31.247Z,13.45
2022-11-06T19:16:02.980Z,13.42
2022-11-06T19:17:34.627Z,13.40
2022-11-06T19:19:06.852Z,13.41
2022-11-06T19:20:39.884Z,13.41
2022-11-06T19:22:11.827Z,13.41
2022-11-06T19:23:43.868Z,13.42
2022-11-06T19:25:15.628Z,13.41
2022-11-06T19:26:47.989Z,13.40
2022-11-06T19:28:19.687Z,13.39
2022-11-06T19:29:51.557Z,13.39
2022-11-06T19:31:28.950Z,13.39
2022-11-06T19:33:01.440Z,13.40
2022-11-06T19:34:38.068Z,13.41
2022-11-06T19:36:11.021Z,13.41
2022-11-06T19:37:42.545Z,13.42
2022-11-06T19:39:14.422Z,13.40
2022-11-06T19:41:06.425Z,13.39
2022-11-06T19:42:38.028Z,13.39
2022-11-06T19:44:09.936Z,13.36
2022-11-06T19:45:41.873Z,13.33
2022-11-06T19:47:13.505Z,13.28
2022-11-06T19:48:45.212Z,13.29
2022-11-06T19:50:21.951Z,13.25
2022-11-06T19:52:41.922Z,13.19
2022-11-06T19:53:57.102Z,13.09
2022-11-06T19:55:28.706Z,13.00
2022-11-06T19:57:29.465Z,12.96
2022-11-06T19:58:51.904Z,12.93
2022-11-06T20:00:23.487Z,12.89
2022-11-06T20:01:55.339Z,12.87
2022-11-06T20:03:26.969Z,12.83
2022-11-06T20:04:58.798Z,12.79
2022-11-06T20:06:30.409Z,12.78
2022-11-06T20:08:02.019Z,12.79
2022-11-06T20:09:34.612Z,12.82
2022-11-06T20:11:07.337Z,12.86
2022-11-06T20:12:38.980Z,12.84
2022-11-06T20:14:10.641Z,12.81
2022-11-06T20:15:42.298Z,12.79
2022-11-06T20:17:15.207Z,12.80
2022-11-06T20:18:50.528Z,12.79
2022-11-06T20:20:22.158Z,12.79
2022-11-06T20:21:54.025Z,12.76
2022-11-06T20:23:25.537Z,12.77
2022-11-06T20:24:57.077Z,12.76